Fort Shafter, HI (96858)

9:11 PM HST on September 02, 2015 (GMT -1000)
Pacific Heights | | Change Station
CLOSE
Current Station
Personal Weather Station
Location: Honolulu, HI
Elevation: 528 ft
Nearby Weather Stations

Elev 528 ft 21.33 °N, 157.84 °W | Updated 14 seconds ago

Scattered Clouds
Scattered Clouds
80.1 °F
Feels Like 84 °F
N
0.0
Wind Variable Wind from ESE
Gusts 0.0 mph

Today
High -- | Low -- °F
--% Chance of Precip.
Yesterday
High -- | Low -- °F
Precip. -- in
6:15 AM 6:46 PM
Waning Gibbous, 73% visible
Pressure 29.87 in
Visibility 10.0 miles
Clouds Few 2200 ft
Scattered Clouds 3500 ft
Heat Index 84 °F
Dew Point 73 °F
Humidity 80%
Rainfall 0.00 in
Snow Depth Not available.
UV 0 out of 12
Pollen Not available.
Air Quality Not available.
Flu Activity Not available.
METAR PHNL 030653Z 13003KT 10SM FEW022 SCT035 28/24 A2987 RMK AO2 SLP115 T02780239
Pressure 29.87 in
Visibility 10.0 miles
Clouds Few 2200 ft
Scattered Clouds 3500 ft
Heat Index 84 °F
Dew Point 73 °F
Humidity 80%
Rainfall 0.00 in
Snow Depth Not available.
UV 0 out of 12
Pollen Not available.
Air Quality Not available.
Flu Activity Not available.
METAR PHNL 030653Z 13003KT 10SM FEW022 SCT035 28/24 A2987 RMK AO2 SLP115 T02780239

10-Day Weather Forecast

×

Almanac

Astronomy

Sep. 02, 2015 Rise Set
Actual Time
Civil Twilight
Nautical Twilight
Astronomical Twilight
Moon
Length of Visible Light
Length of Day
Tomorrow will be .
, % of the Moon is Illuminated

Today's Extremes

State Highs State Lows

Community

WunderPhotos

Upload Photos

1,851,915 photos uploaded!

WunderBlogs® & News

Nearby

Air Quality

  Air Quality AQ Index Pollutant
Not available.

Snow Depth

Station Depth Elevation

Earthquake Activity

City Distance Mag. Time & Date
Minimum magnitude displayed is 2.5.

Coastal Water Temperatures

Place Temperature

Stations

Nearby Weather Stations

Station Location Temp. Windchill Dew Point Humidity Wind Precip. Elev Updated Type